Aviation Digital Data Service (ADDS)

Output produced by METARs form (1327 UTC 21 August 2019)
found at http://www.aviationweather.gov/metar/data/
 
Forecast for: WSSS (SINGAPORE/CHANGI, SG)
Text: TAF WSSS 211100Z 2112/2218 16010KT 9999 FEW015 SCT020
Forecast period: 1200 UTC 21 August 2019 to 1800 UTC 22 August 2019
Forecast type: FROM: standard forecast or significant change
Winds: from the SSE (160 degrees) at 12 MPH (10 knots; 5.1 m/s)
Visibility: 6 or more miles 10+ km)
Ceiling: at least 12,000 feet AGL
Clouds: few clouds at 1500 feet AGL
scattered clouds at 2000 feet AGL
Weather: no significant weather forecast for this period